createdAt,value
2022-08-17T00:02:24.165Z,35.37
2022-08-17T00:04:55.360Z,38.20
2022-08-17T00:07:22.868Z,35.63
2022-08-17T00:09:49.699Z,35.38
2022-08-17T00:12:42.563Z,35.95
2022-08-17T00:15:10.527Z,37.57
2022-08-17T00:17:38.169Z,31.58
2022-08-17T00:20:05.816Z,33.90
2022-08-17T00:22:36.485Z,35.72
2022-08-17T00:25:07.448Z,32.00
2022-08-17T00:27:34.886Z,34.60
2022-08-17T00:30:01.889Z,32.10
2022-08-17T00:33:12.121Z,33.60
2022-08-17T00:35:18.410Z,34.63
2022-08-17T00:37:45.406Z,35.08
2022-08-17T00:40:14.419Z,36.10
2022-08-17T00:42:42.072Z,32.72
2022-08-17T00:45:11.686Z,33.88
2022-08-17T00:47:39.278Z,31.02
2022-08-17T00:50:09.192Z,30.65
2022-08-17T00:52:45.389Z,35.83
2022-08-17T00:55:12.257Z,32.05
2022-08-17T00:57:43.384Z,31.45
2022-08-17T01:00:15.604Z,28.08
2022-08-17T01:02:45.159Z,30.60
2022-08-17T01:05:25.558Z,32.23
2022-08-17T01:07:53.827Z,28.30
2022-08-17T01:10:58.730Z,30.55
2022-08-17T01:13:15.039Z,31.20
2022-08-17T01:15:48.687Z,32.50
2022-08-17T01:18:16.613Z,29.40
2022-08-17T01:20:58.582Z,28.00
2022-08-17T01:23:28.798Z,28.23
2022-08-17T01:25:58.213Z,28.83
2022-08-17T01:28:33.326Z,29.45
2022-08-17T01:31:15.309Z,29.50
2022-08-17T01:33:42.391Z,30.60
2022-08-17T01:36:09.791Z,29.98
2022-08-17T01:38:38.419Z,35.97
2022-08-17T01:41:12.297Z,35.25
2022-08-17T01:43:47.638Z,30.30
2022-08-17T01:46:20.078Z,34.28
2022-08-17T01:48:47.500Z,34.80
2022-08-17T01:51:15.991Z,37.05
2022-08-17T01:53:47.333Z,37.33
2022-08-17T01:56:18.152Z,33.93
2022-08-17T01:58:45.629Z,34.85
2022-08-17T02:01:19.590Z,32.28
2022-08-17T02:03:56.182Z,39.08
2022-08-17T02:06:30.294Z,40.90
2022-08-17T02:09:03.529Z,43.27
2022-08-17T02:11:33.980Z,35.85
2022-08-17T02:14:03.123Z,37.72
2022-08-17T02:16:37.631Z,35.88
2022-08-17T02:19:11.337Z,28.27
2022-08-17T02:21:39.910Z,23.77
2022-08-17T02:24:14.821Z,19.98
2022-08-17T02:26:41.994Z,14.68
2022-08-17T02:29:08.805Z,13.73
2022-08-17T02:31:35.645Z,9.77
2022-08-17T02:34:04.592Z,9.13
2022-08-17T02:36:34.006Z,10.68
2022-08-17T02:39:11.867Z,11.20
2022-08-17T02:41:39.621Z,11.05
2022-08-17T02:44:07.368Z,14.55
2022-08-17T02:46:34.522Z,12.10
2022-08-17T02:49:01.550Z,12.40
2022-08-17T02:51:28.618Z,11.75
2022-08-17T02:54:39.671Z,13.57
2022-08-17T02:56:43.100Z,12.68
2022-08-17T02:59:09.843Z,11.97
2022-08-17T03:01:36.817Z,13.73
2022-08-17T03:04:04.070Z,18.35
2022-08-17T03:06:31.759Z,23.02
2022-08-17T03:08:58.571Z,23.38
2022-08-17T03:11:25.491Z,23.47
2022-08-17T03:13:52.332Z,23.33
2022-08-17T03:16:19.086Z,22.50
2022-08-17T03:18:46.228Z,20.92
2022-08-17T03:21:13.168Z,29.67
2022-08-17T03:23:42.100Z,33.00
2022-08-17T03:26:15.340Z,35.65
2022-08-17T03:28:42.480Z,33.30
2022-08-17T03:31:09.359Z,33.50
2022-08-17T03:33:36.139Z,41.75
2022-08-17T03:36:03.197Z,38.93
2022-08-17T03:38:30.035Z,41.15
2022-08-17T03:41:06.989Z,43.30
2022-08-17T03:43:34.683Z,39.65
2022-08-17T03:46:27.673Z,40.13
2022-08-17T03:49:19.815Z,41.90
2022-08-17T03:52:05.077Z,46.70
2022-08-17T03:54:50.423Z,42.63
2022-08-17T03:57:17.263Z,44.10
2022-08-17T03:59:44.881Z,47.55
2022-08-17T04:02:18.193Z,49.33
2022-08-17T04:04:45.699Z,46.03
2022-08-17T04:07:12.795Z,49.42
2022-08-17T04:09:39.621Z,46.85
2022-08-17T04:12:06.579Z,48.47
2022-08-17T04:14:51.475Z,48.63
2022-08-17T04:17:25.298Z,48.70
2022-08-17T04:19:52.897Z,44.38
2022-08-17T04:22:30.558Z,39.97
2022-08-17T04:25:02.670Z,42.03
2022-08-17T04:27:29.546Z,39.97
2022-08-17T04:29:56.391Z,41.53
2022-08-17T04:32:59.195Z,37.97
2022-08-17T04:35:10.501Z,39.22
2022-08-17T04:37:38.005Z,35.17
2022-08-17T04:40:27.298Z,34.43
2022-08-17T04:43:10.085Z,36.70
2022-08-17T04:45:55.687Z,34.75
2022-08-17T04:48:45.167Z,30.98
2022-08-17T04:51:31.485Z,35.00
2022-08-17T04:54:01.848Z,32.37
2022-08-17T04:56:30.829Z,31.45
2022-08-17T04:59:02.565Z,33.15
2022-08-17T05:01:32.133Z,30.25
2022-08-17T05:04:21.389Z,33.90
2022-08-17T05:06:49.983Z,31.77
2022-08-17T05:09:17.734Z,33.60
2022-08-17T05:11:45.499Z,34.38
2022-08-17T05:14:12.676Z,32.58
2022-08-17T05:16:39.439Z,34.80
2022-08-17T05:19:06.345Z,33.80
2022-08-17T05:21:33.244Z,32.45
2022-08-17T05:24:00.245Z,30.23
2022-08-17T05:26:28.782Z,30.60
2022-08-17T05:28:59.771Z,26.45
2022-08-17T05:31:30.875Z,27.53
2022-08-17T05:33:58.596Z,24.58
2022-08-17T05:36:43.484Z,22.55
2022-08-17T05:39:15.850Z,20.67
2022-08-17T05:41:45.996Z,23.65
2022-08-17T05:44:12.890Z,23.57
2022-08-17T05:46:43.643Z,19.63
2022-08-17T05:49:12.615Z,21.13
2022-08-17T05:51:56.759Z,20.67
2022-08-17T05:54:32.352Z,20.98
2022-08-17T05:57:18.027Z,20.23
2022-08-17T06:00:16.933Z,20.60
2022-08-17T06:03:05.023Z,19.13
2022-08-17T06:06:13.095Z,22.38
2022-08-17T06:08:53.338Z,22.70
2022-08-17T06:11:46.060Z,21.00
2022-08-17T06:14:38.901Z,24.52
2022-08-17T06:17:13.560Z,20.75
2022-08-17T06:19:45.812Z,19.77
2022-08-17T06:22:16.740Z,20.67
2022-08-17T06:25:17.993Z,19.20
2022-08-17T06:27:54.089Z,18.60
2022-08-17T06:30:57.597Z,16.88
2022-08-17T06:33:25.846Z,14.85
2022-08-17T06:36:14.589Z,16.60
2022-08-17T06:39:01.468Z,13.53
2022-08-17T06:41:41.730Z,13.00
2022-08-17T06:44:43.651Z,12.63
2022-08-17T06:47:13.542Z,11.80
2022-08-17T06:49:55.415Z,12.02
2022-08-17T06:52:45.777Z,13.07
2022-08-17T06:55:33.198Z,11.85
2022-08-17T06:58:16.649Z,11.55
2022-08-17T07:00:47.181Z,11.38
2022-08-17T07:03:37.888Z,12.13
2022-08-17T07:06:13.865Z,12.00
2022-08-17T07:09:02.451Z,10.57
2022-08-17T07:11:37.841Z,13.20
2022-08-17T07:14:15.196Z,11.13
2022-08-17T07:16:51.314Z,11.63
2022-08-17T07:19:22.538Z,10.60
2022-08-17T07:21:57.329Z,12.55
2022-08-17T07:24:39.411Z,10.18
2022-08-17T07:27:13.319Z,10.60
2022-08-17T07:29:49.536Z,10.80
2022-08-17T07:32:20.590Z,10.10
2022-08-17T07:35:11.613Z,9.15
2022-08-17T07:37:40.854Z,9.68
2022-08-17T07:40:27.117Z,11.60
2022-08-17T07:43:26.061Z,10.00
2022-08-17T07:46:29.628Z,9.93
2022-08-17T07:49:16.888Z,10.20
2022-08-17T07:51:43.784Z,11.07
2022-08-17T07:54:17.226Z,10.80
2022-08-17T07:56:46.355Z,10.05
2022-08-17T07:59:23.046Z,10.30
2022-08-17T08:01:57.961Z,10.57
2022-08-17T08:07:20.485Z,11.30
2022-08-17T08:10:00.540Z,11.32
2022-08-17T08:12:45.775Z,13.60
2022-08-17T08:15:20.939Z,13.18
2022-08-17T08:17:53.065Z,12.07
2022-08-17T08:20:52.932Z,13.32
2022-08-17T08:23:46.370Z,14.82
2022-08-17T08:26:20.050Z,13.60
2022-08-17T08:29:01.815Z,12.65
2022-08-17T08:31:58.824Z,12.65
2022-08-17T08:35:03.402Z,12.18
2022-08-17T08:37:52.763Z,12.98
2022-08-17T08:40:31.666Z,13.47
2022-08-17T08:43:37.806Z,12.63
2022-08-17T08:46:04.521Z,13.90
2022-08-17T08:49:10.362Z,15.43
2022-08-17T08:51:51.755Z,13.63
2022-08-17T08:54:28.259Z,15.67
2022-08-17T09:00:10.316Z,15.30
2022-08-17T09:03:51.754Z,17.20
2022-08-17T09:06:40.141Z,16.50
2022-08-17T09:09:48.241Z,20.20
2022-08-17T09:12:35.124Z,16.58
2022-08-17T09:15:12.939Z,16.88
2022-08-17T09:18:59.005Z,17.02
2022-08-17T09:20:58.599Z,17.05
2022-08-17T09:23:44.700Z,14.00
2022-08-17T09:26:24.144Z,11.43
2022-08-17T09:28:59.026Z,8.90
2022-08-17T09:31:35.450Z,8.45
2022-08-17T09:34:31.899Z,11.25
2022-08-17T09:37:14.961Z,11.87
2022-08-17T09:40:03.857Z,11.50
2022-08-17T09:42:37.826Z,14.57
2022-08-17T09:45:24.083Z,10.32
2022-08-17T09:48:05.959Z,9.45
2022-08-17T09:50:55.574Z,10.83
2022-08-17T09:53:35.590Z,10.40
2022-08-17T09:56:17.629Z,11.05
2022-08-17T09:58:50.492Z,11.30
2022-08-17T10:01:31.336Z,11.35
2022-08-17T10:04:23.817Z,12.13
2022-08-17T10:07:25.762Z,9.40
2022-08-17T10:10:15.227Z,10.82
2022-08-17T10:12:53.201Z,10.27
2022-08-17T10:15:53.488Z,9.82
2022-08-17T10:18:58.100Z,9.97
2022-08-17T10:21:44.603Z,12.65
2022-08-17T10:25:13.487Z,10.10
2022-08-17T10:27:51.893Z,9.60
2022-08-17T10:30:23.024Z,9.30
2022-08-17T10:32:57.522Z,9.43
2022-08-17T10:35:34.035Z,10.43
2022-08-17T10:38:45.982Z,11.07
2022-08-17T10:41:41.158Z,10.93
2022-08-17T10:44:38.860Z,10.98
2022-08-17T10:47:15.358Z,10.23
2022-08-17T10:49:53.559Z,11.32
2022-08-17T10:52:20.390Z,12.32
2022-08-17T10:55:05.931Z,11.20
2022-08-17T10:57:42.105Z,12.00
2022-08-17T11:00:18.982Z,9.57
2022-08-17T11:02:50.291Z,9.32
2022-08-17T11:05:28.622Z,11.20
2022-08-17T11:08:05.443Z,9.75
2022-08-17T11:10:46.477Z,10.05
2022-08-17T11:13:17.587Z,12.67
2022-08-17T11:16:08.139Z,12.50
2022-08-17T11:18:57.086Z,11.35
2022-08-17T11:21:50.344Z,10.80
2022-08-17T11:24:33.101Z,11.57
2022-08-17T11:27:33.058Z,12.13
2022-08-17T11:30:02.433Z,12.48
2022-08-17T11:32:47.356Z,12.35
2022-08-17T11:35:20.738Z,13.60
2022-08-17T11:38:16.835Z,13.10
2022-08-17T11:40:59.466Z,13.50
2022-08-17T11:43:55.506Z,13.50
2022-08-17T11:47:20.250Z,14.45
2022-08-17T11:50:05.787Z,15.82
2022-08-17T11:52:46.881Z,16.77
2022-08-17T11:55:37.528Z,14.73
2022-08-17T11:58:06.529Z,13.05
2022-08-17T12:00:45.528Z,16.13
2022-08-17T12:03:31.734Z,16.92
2022-08-17T12:06:20.282Z,16.83
2022-08-17T12:09:10.347Z,15.17
2022-08-17T12:11:58.767Z,17.92
2022-08-17T12:15:08.478Z,21.85
2022-08-17T12:17:40.389Z,18.25
2022-08-17T12:20:24.117Z,22.38
2022-08-17T12:23:03.683Z,20.03
2022-08-17T12:25:44.063Z,20.45
2022-08-17T12:28:28.626Z,19.70
2022-08-17T12:31:01.523Z,20.45
2022-08-17T12:33:29.045Z,18.60
2022-08-17T12:36:04.944Z,20.47
2022-08-17T12:38:35.963Z,19.73
2022-08-17T12:41:25.126Z,21.70
2022-08-17T12:44:03.223Z,21.35
2022-08-17T12:46:34.727Z,24.60
2022-08-17T12:49:14.925Z,22.80
2022-08-17T12:51:48.904Z,22.45
2022-08-17T12:54:35.852Z,24.48
2022-08-17T12:57:12.533Z,24.45
2022-08-17T12:59:50.290Z,26.40
2022-08-17T13:02:30.104Z,24.23
2022-08-17T13:05:00.705Z,26.77
2022-08-17T13:07:35.067Z,25.95
2022-08-17T13:10:02.489Z,24.48
2022-08-17T13:12:35.347Z,24.88
2022-08-17T13:15:02.733Z,23.37
2022-08-17T13:17:34.708Z,26.30
2022-08-17T13:20:04.850Z,25.70
2022-08-17T13:22:32.479Z,25.95
2022-08-17T13:25:07.370Z,27.20
2022-08-17T13:27:34.354Z,27.23
2022-08-17T13:30:07.313Z,25.67
2022-08-17T13:32:39.916Z,27.23
2022-08-17T13:35:41.048Z,27.45
2022-08-17T13:38:10.455Z,25.25
2022-08-17T13:40:41.572Z,28.07
2022-08-17T13:43:09.796Z,26.08
2022-08-17T13:45:50.686Z,23.35
2022-08-17T13:48:29.322Z,23.67
2022-08-17T13:50:59.601Z,24.25
2022-08-17T13:53:30.078Z,25.23
2022-08-17T13:56:31.793Z,24.40
2022-08-17T13:59:22.981Z,24.15
2022-08-17T14:02:10.555Z,22.65
2022-08-17T14:04:40.176Z,27.08
2022-08-17T14:07:12.959Z,22.90
2022-08-17T14:09:54.161Z,22.25
2022-08-17T14:12:24.945Z,22.48
2022-08-17T14:14:53.044Z,21.45
2022-08-17T14:17:20.060Z,22.75
2022-08-17T14:19:46.801Z,22.73
2022-08-17T14:22:23.958Z,22.90
2022-08-17T14:24:54.204Z,21.50
2022-08-17T14:27:21.691Z,21.80
2022-08-17T14:29:48.957Z,22.48
2022-08-17T14:32:45.825Z,20.30
2022-08-17T14:35:14.565Z,21.23
2022-08-17T14:37:42.156Z,23.95
2022-08-17T14:40:12.780Z,22.02
2022-08-17T14:42:41.832Z,21.60
2022-08-17T14:45:30.100Z,20.40
2022-08-17T14:47:58.768Z,21.00
2022-08-17T14:50:25.714Z,21.77
2022-08-17T14:52:54.013Z,20.25
2022-08-17T14:55:22.526Z,19.95
2022-08-17T14:57:49.553Z,21.00
2022-08-17T15:00:17.403Z,18.60
2022-08-17T15:02:48.635Z,19.60
2022-08-17T15:05:16.704Z,18.58
2022-08-17T15:07:44.554Z,18.27
2022-08-17T15:10:13.550Z,19.57
2022-08-17T15:12:41.750Z,18.85
2022-08-17T15:15:11.441Z,20.40
2022-08-17T15:17:44.353Z,20.40
2022-08-17T15:20:18.594Z,19.17
2022-08-17T15:22:46.841Z,19.13
2022-08-17T15:25:14.319Z,19.70
2022-08-17T15:27:41.613Z,21.00
2022-08-17T15:30:09.945Z,20.23
2022-08-17T15:32:39.645Z,20.95
2022-08-17T15:35:09.168Z,21.43
2022-08-17T15:37:36.285Z,19.73
2022-08-17T15:40:05.401Z,21.13
2022-08-17T15:42:32.928Z,20.30
2022-08-17T15:45:06.072Z,19.55
2022-08-17T15:47:32.830Z,19.73
2022-08-17T15:50:00.262Z,22.75
2022-08-17T15:52:30.003Z,21.55
2022-08-17T15:55:00.740Z,19.70
2022-08-17T15:57:28.237Z,22.15
2022-08-17T15:59:58.755Z,20.57
2022-08-17T16:03:45.923Z,19.45
2022-08-17T16:05:24.232Z,21.45
2022-08-17T16:07:52.524Z,20.88
2022-08-17T16:10:21.007Z,19.50
2022-08-17T16:12:49.448Z,22.37
2022-08-17T16:15:17.550Z,20.35
2022-08-17T16:17:44.356Z,24.08
2022-08-17T16:20:20.597Z,23.13
2022-08-17T16:22:49.584Z,21.27
2022-08-17T16:25:23.493Z,19.60
2022-08-17T16:28:10.601Z,21.02
2022-08-17T16:30:38.251Z,19.77
2022-08-17T16:33:05.831Z,21.85
2022-08-17T16:35:33.234Z,21.23
2022-08-17T16:38:00.274Z,20.40
2022-08-17T16:40:31.261Z,21.17
2022-08-17T16:43:04.283Z,23.08
2022-08-17T16:45:40.078Z,20.60
2022-08-17T16:48:08.235Z,22.00
2022-08-17T16:50:35.502Z,22.67
2022-08-17T16:53:08.186Z,22.65
2022-08-17T16:55:35.716Z,24.17
2022-08-17T16:58:06.678Z,23.20
2022-08-17T17:00:34.004Z,22.77
2022-08-17T17:03:20.388Z,20.50
2022-08-17T17:05:57.820Z,22.40
2022-08-17T17:09:02.187Z,21.95
2022-08-17T17:11:45.497Z,22.88
2022-08-17T17:14:21.037Z,24.00
2022-08-17T17:17:11.815Z,24.50
2022-08-17T17:19:41.269Z,24.17
2022-08-17T17:22:18.812Z,24.38
2022-08-17T17:25:04.412Z,24.20
2022-08-17T17:27:47.388Z,20.75
2022-08-17T17:30:46.034Z,22.97
2022-08-17T17:33:24.663Z,20.88
2022-08-17T17:35:56.799Z,22.10
2022-08-17T17:38:33.818Z,20.80
2022-08-17T17:41:05.494Z,21.92
2022-08-17T17:43:39.716Z,21.03
2022-08-17T17:46:28.278Z,22.75
2022-08-17T17:48:59.889Z,24.20
2022-08-17T17:52:06.484Z,20.83
2022-08-17T17:54:52.171Z,19.83
2022-08-17T17:57:49.411Z,19.67
2022-08-17T18:00:24.267Z,20.05
2022-08-17T18:03:12.739Z,22.65
2022-08-17T18:05:48.827Z,22.48
2022-08-17T18:08:41.394Z,22.27
2022-08-17T18:11:27.127Z,22.43
2022-08-17T18:14:14.295Z,20.40
2022-08-17T18:16:42.745Z,21.42
2022-08-17T18:19:14.612Z,20.23
2022-08-17T18:21:45.894Z,19.70
2022-08-17T18:24:14.079Z,16.80
2022-08-17T18:26:52.856Z,16.48
2022-08-17T18:29:27.661Z,16.45
2022-08-17T18:32:16.360Z,16.77
2022-08-17T18:34:47.799Z,15.57
2022-08-17T18:37:56.017Z,15.90
2022-08-17T18:40:30.679Z,17.23
2022-08-17T18:43:27.635Z,15.02
2022-08-17T18:46:28.151Z,11.73
2022-08-17T18:49:02.184Z,11.90
2022-08-17T18:51:41.834Z,11.97
2022-08-17T18:54:22.365Z,13.02
2022-08-17T18:56:51.375Z,14.32
2022-08-17T18:59:42.770Z,14.18
2022-08-17T19:02:20.579Z,14.63
2022-08-17T19:05:01.204Z,16.83
2022-08-17T19:07:41.452Z,14.98
2022-08-17T19:10:14.671Z,14.63
2022-08-17T19:13:12.426Z,12.98
2022-08-17T19:16:11.908Z,13.20
2022-08-17T19:18:50.861Z,7.73
2022-08-17T19:21:17.812Z,7.20
2022-08-17T19:23:53.359Z,6.03
2022-08-17T19:26:53.977Z,5.45
2022-08-17T19:29:44.375Z,5.53
2022-08-17T19:32:15.711Z,4.70
2022-08-17T19:34:44.399Z,5.45
2022-08-17T19:37:17.014Z,6.07
2022-08-17T19:39:55.781Z,5.30
2022-08-17T19:42:39.262Z,7.32
2022-08-17T19:45:35.256Z,7.00
2022-08-17T19:48:20.616Z,8.98
2022-08-17T19:51:06.282Z,9.30
2022-08-17T19:54:01.739Z,9.45
2022-08-17T19:57:01.788Z,9.55
2022-08-17T20:00:01.806Z,10.17
2022-08-17T20:02:37.018Z,8.40
2022-08-17T20:05:15.167Z,8.32
2022-08-17T20:08:11.046Z,8.05
2022-08-17T20:10:48.124Z,8.63
2022-08-17T20:13:45.273Z,7.17
2022-08-17T20:16:12.347Z,8.20
2022-08-17T20:19:04.166Z,7.72
2022-08-17T20:21:58.875Z,12.32
2022-08-17T20:24:53.665Z,12.57
2022-08-17T20:27:28.012Z,13.83
2022-08-17T20:30:04.743Z,13.43
2022-08-17T20:32:52.049Z,15.95
2022-08-17T20:35:39.379Z,19.77
2022-08-17T20:38:12.968Z,20.10
2022-08-17T20:40:55.272Z,16.67
2022-08-17T20:43:35.482Z,19.88
2022-08-17T20:46:40.359Z,20.17
2022-08-17T20:49:41.293Z,20.17
2022-08-17T20:52:13.419Z,22.63
2022-08-17T20:54:47.947Z,22.57
2022-08-17T20:57:38.023Z,25.02
2022-08-17T21:00:17.241Z,29.48
2022-08-17T21:02:50.336Z,26.60
2022-08-17T21:05:34.839Z,24.38
2022-08-17T21:08:15.067Z,27.10
2022-08-17T21:10:45.545Z,27.05
2022-08-17T21:13:13.908Z,26.02
2022-08-17T21:15:43.839Z,26.55
2022-08-17T21:18:32.326Z,26.42
2022-08-17T21:21:20.759Z,29.03
2022-08-17T21:24:08.478Z,27.52
2022-08-17T21:26:51.352Z,29.98
2022-08-17T21:29:31.488Z,28.20
2022-08-17T21:31:59.445Z,29.85
2022-08-17T21:34:39.226Z,29.30
2022-08-17T21:37:26.270Z,31.67
2022-08-17T21:40:09.899Z,29.42
2022-08-17T21:42:44.299Z,28.33
2022-08-17T21:45:24.492Z,29.52
2022-08-17T21:48:14.599Z,33.07
2022-08-17T21:50:44.739Z,27.23
2022-08-17T21:53:28.080Z,29.92
2022-08-17T21:55:57.648Z,26.25
2022-08-17T21:58:31.186Z,27.90
2022-08-17T22:01:20.613Z,26.97
2022-08-17T22:03:56.457Z,27.67
2022-08-17T22:06:35.261Z,25.35
2022-08-17T22:09:07.773Z,25.88
2022-08-17T22:12:06.784Z,29.38
2022-08-17T22:14:52.606Z,31.67
2022-08-17T22:17:29.447Z,29.85
2022-08-17T22:20:01.394Z,30.13
2022-08-17T22:23:04.278Z,29.63
2022-08-17T22:25:34.142Z,33.30
2022-08-17T22:28:04.231Z,32.33
2022-08-17T22:30:38.569Z,34.53
2022-08-17T22:33:31.367Z,29.40
2022-08-17T22:36:29.050Z,28.25
2022-08-17T22:39:22.533Z,27.60
2022-08-17T22:42:00.128Z,29.17
2022-08-17T22:44:36.343Z,25.70
2022-08-17T22:47:15.063Z,28.92
2022-08-17T22:49:54.132Z,27.70
2022-08-17T22:52:33.206Z,27.02
2022-08-17T22:55:26.804Z,23.97
2022-08-17T22:58:12.100Z,24.35
2022-08-17T23:00:42.116Z,23.25
2022-08-17T23:03:19.831Z,23.55
2022-08-17T23:06:06.906Z,23.60
2022-08-17T23:08:37.552Z,23.20
2022-08-17T23:11:06.602Z,23.27
2022-08-17T23:13:33.482Z,26.38
2022-08-17T23:16:00.426Z,26.58
2022-08-17T23:18:27.362Z,24.58
2022-08-17T23:20:54.404Z,22.93
2022-08-17T23:23:23.921Z,23.77
2022-08-17T23:25:50.985Z,23.30
2022-08-17T23:28:17.743Z,24.02
2022-08-17T23:30:45.896Z,24.80
2022-08-17T23:33:29.973Z,24.43
2022-08-17T23:35:59.991Z,23.00
2022-08-17T23:38:27.526Z,23.83
2022-08-17T23:40:55.646Z,21.05
2022-08-17T23:43:25.314Z,21.38
2022-08-17T23:45:56.113Z,21.80
2022-08-17T23:48:32.573Z,22.95
2022-08-17T23:51:17.287Z,21.02
2022-08-17T23:53:55.432Z,21.83
2022-08-17T23:56:25.720Z,23.00
2022-08-17T23:58:54.875Z,21.57
